createdAt,value
2022-12-27T00:00:14.196Z,100828.19
2022-12-27T00:03:15.675Z,100828.50
2022-12-27T00:06:20.991Z,100822.19
2022-12-27T00:09:23.204Z,100826.06
2022-12-27T00:12:24.978Z,100829.09
2022-12-27T00:15:27.811Z,100832.13
2022-12-27T00:18:29.315Z,100833.28
2022-12-27T00:21:31.801Z,100832.59
2022-12-27T00:24:35.143Z,100843.78
2022-12-27T00:27:37.197Z,100831.34
2022-12-27T00:30:38.757Z,100832.38
2022-12-27T00:33:42.079Z,100833.38
2022-12-27T00:36:43.627Z,100834.69
2022-12-27T00:39:45.125Z,100836.84
2022-12-27T00:42:46.582Z,100837.88
2022-12-27T00:45:48.330Z,100836.31
2022-12-27T00:48:49.850Z,100833.75
2022-12-27T00:51:51.415Z,100828.63
2022-12-27T00:54:52.868Z,100836.06
2022-12-27T00:57:55.274Z,100843.34
2022-12-27T01:01:09.464Z,100847.09
2022-12-27T01:04:14.033Z,100839.09
2022-12-27T01:07:15.559Z,100859.25
2022-12-27T01:10:17.093Z,100872.09
2022-12-27T01:13:18.550Z,100867.84
2022-12-27T01:16:22.005Z,100879.72
2022-12-27T01:19:23.539Z,100887.13
2022-12-27T01:22:25.437Z,100880.00
2022-12-27T01:25:26.884Z,100881.16
2022-12-27T01:28:28.420Z,100884.88
2022-12-27T01:31:29.990Z,100875.03
2022-12-27T01:34:31.622Z,100872.47
2022-12-27T01:37:33.115Z,100878.91
2022-12-27T01:40:36.367Z,100879.88
2022-12-27T01:43:38.421Z,100877.34
2022-12-27T01:46:39.900Z,100881.91
2022-12-27T01:50:26.306Z,100873.91
2022-12-27T01:53:31.115Z,100883.06
2022-12-27T01:56:32.615Z,100879.78
2022-12-27T01:59:34.793Z,100887.22
2022-12-27T02:02:36.765Z,100891.78
2022-12-27T02:05:41.678Z,100907.34
2022-12-27T02:08:56.639Z,100892.94
2022-12-27T02:11:58.454Z,100908.38
2022-12-27T02:15:02.067Z,100905.78
2022-12-27T02:18:04.050Z,100911.22
2022-12-27T02:21:21.827Z,100916.66
2022-12-27T02:24:36.901Z,100916.81
2022-12-27T02:28:15.568Z,100916.81
2022-12-27T02:31:23.760Z,100908.81
2022-12-27T02:34:31.422Z,100908.81
2022-12-27T02:37:38.176Z,100904.41
2022-12-27T02:41:04.601Z,100908.09
2022-12-27T02:44:24.999Z,100912.81
2022-12-27T02:47:46.384Z,100914.66
2022-12-27T02:51:34.709Z,100906.50
2022-12-27T02:55:10.013Z,100908.53
2022-12-27T02:58:20.708Z,100900.53
2022-12-27T03:01:43.973Z,100904.25
2022-12-27T03:05:00.180Z,100906.09
2022-12-27T03:08:12.207Z,100913.38
2022-12-27T03:11:32.490Z,100911.81
2022-12-27T03:14:58.596Z,100922.66
2022-12-27T03:18:09.299Z,100918.25
2022-12-27T03:21:34.691Z,100918.41
2022-12-27T03:24:57.965Z,100909.41
2022-12-27T03:28:24.885Z,100911.28
2022-12-27T03:31:51.317Z,100909.72
2022-12-27T03:35:00.670Z,100907.97
2022-12-27T03:38:04.136Z,100899.00
2022-12-27T03:41:27.771Z,100913.41
2022-12-27T03:44:29.399Z,100923.56
2022-12-27T03:47:42.522Z,100923.56
2022-12-27T03:50:52.726Z,100931.00
2022-12-27T03:54:02.274Z,100918.28
2022-12-27T03:57:19.680Z,100936.25
2022-12-27T04:00:21.327Z,100924.84
2022-12-27T04:03:23.090Z,100923.16
2022-12-27T04:06:24.671Z,100935.56
2022-12-27T04:09:44.720Z,100935.56
2022-12-27T04:13:05.354Z,100928.28
2022-12-27T04:16:25.774Z,100929.13
2022-12-27T04:19:45.728Z,100925.56
2022-12-27T04:23:05.778Z,100942.56
2022-12-27T04:26:26.197Z,100930.56
2022-12-27T04:29:46.013Z,100934.13
2022-12-27T04:33:06.133Z,100942.81
2022-12-27T04:36:08.285Z,100942.38
2022-12-27T04:39:09.853Z,100935.81
2022-12-27T04:42:29.821Z,100942.78
2022-12-27T04:45:50.311Z,100945.38
2022-12-27T04:49:10.202Z,100945.22
2022-12-27T04:52:37.994Z,100956.81
2022-12-27T04:55:39.499Z,100944.94
2022-12-27T04:59:00.925Z,100940.22
2022-12-27T05:02:03.908Z,100958.22
2022-12-27T05:05:06.847Z,100956.19
2022-12-27T05:08:27.813Z,100947.22
2022-12-27T05:11:47.989Z,100960.63
2022-12-27T05:14:50.137Z,100947.22
2022-12-27T05:17:51.617Z,100966.06
2022-12-27T05:20:53.267Z,100958.78
2022-12-27T05:24:13.159Z,100974.03
2022-12-27T05:27:15.878Z,100954.19
2022-12-27T05:30:17.451Z,100957.94
2022-12-27T05:33:19.005Z,100955.22
2022-12-27T05:36:21.047Z,100979.63
2022-12-27T05:39:22.665Z,100969.75
2022-12-27T05:42:24.172Z,100970.91
2022-12-27T05:45:25.721Z,100973.78
2022-12-27T05:48:28.136Z,100988.22
2022-12-27T05:51:29.707Z,100988.50
2022-12-27T05:54:31.236Z,100984.06
2022-12-27T05:57:33.654Z,101001.34
2022-12-27T06:00:35.169Z,101001.22
2022-12-27T06:03:37.685Z,101013.91
2022-12-27T06:06:39.223Z,101034.63
2022-12-27T06:09:40.728Z,101042.59
2022-12-27T06:12:42.297Z,101030.75
2022-12-27T06:15:43.793Z,101018.91
2022-12-27T06:18:45.774Z,101026.91
2022-12-27T06:21:47.324Z,101024.03
2022-12-27T06:24:48.875Z,101029.31
2022-12-27T06:27:50.415Z,101032.03
2022-12-27T06:30:51.966Z,101036.63
2022-12-27T06:33:54.461Z,101042.88
2022-12-27T06:36:57.472Z,101036.63
2022-12-27T06:39:58.952Z,101035.59
2022-12-27T06:43:00.462Z,101037.47
2022-12-27T06:46:10.275Z,101029.19
2022-12-27T06:49:15.177Z,101047.31
2022-12-27T06:52:16.741Z,101044.75
2022-12-27T06:55:18.252Z,101057.47
2022-12-27T06:58:19.784Z,101061.16
2022-12-27T07:01:24.897Z,101062.00
2022-12-27T07:04:26.440Z,101072.19
2022-12-27T07:07:27.938Z,101059.59
2022-12-27T07:10:29.486Z,101081.31
2022-12-27T07:13:34.624Z,101075.03
2022-12-27T07:16:36.489Z,101079.72
2022-12-27T07:19:38.170Z,101086.16
2022-12-27T07:22:39.615Z,101089.88
2022-12-27T07:25:41.289Z,101087.16
2022-12-27T07:28:43.192Z,101092.75
2022-12-27T07:31:45.067Z,101091.13
2022-12-27T07:34:46.582Z,101107.41
2022-12-27T07:37:48.050Z,101112.13
2022-12-27T07:40:49.563Z,101123.09
2022-12-27T07:43:51.084Z,101124.13
2022-12-27T07:46:52.658Z,101138.81
2022-12-27T07:49:54.129Z,101146.09
2022-12-27T07:52:55.598Z,101147.25
2022-12-27T07:55:57.331Z,101144.53
2022-12-27T07:59:01.051Z,101151.94
2022-12-27T08:02:05.302Z,101143.09
2022-12-27T08:05:08.278Z,101153.94
2022-12-27T08:08:12.371Z,101150.50
2022-12-27T08:11:13.879Z,101159.78
2022-12-27T08:14:15.382Z,101159.94
2022-12-27T08:17:23.795Z,101165.19
2022-12-27T08:20:27.508Z,101172.66
2022-12-27T08:23:28.987Z,101155.66
2022-12-27T08:26:30.456Z,101158.50
2022-12-27T08:29:32.033Z,101157.63
2022-12-27T08:32:34.234Z,101174.03
2022-12-27T08:35:53.274Z,101176.75
2022-12-27T08:38:55.873Z,101177.88
2022-12-27T08:41:57.379Z,101176.19
2022-12-27T08:44:58.849Z,101183.59
2022-12-27T08:48:01.648Z,101188.03
2022-12-27T08:51:11.977Z,101191.88
2022-12-27T08:54:14.636Z,101202.00
2022-12-27T08:57:16.097Z,101205.69
2022-12-27T09:00:18.643Z,101214.72
2022-12-27T09:03:21.361Z,101219.25
2022-12-27T09:06:24.678Z,101223.97
2022-12-27T09:09:26.187Z,101225.81
2022-12-27T09:12:27.707Z,101239.50
2022-12-27T09:15:29.228Z,101238.78
2022-12-27T09:18:30.776Z,101242.50
2022-12-27T09:21:33.967Z,101253.34
2022-12-27T09:24:35.599Z,101250.88
2022-12-27T09:27:38.162Z,101248.19
2022-12-27T09:30:39.667Z,101251.91
2022-12-27T09:33:41.815Z,101258.31
2022-12-27T09:36:43.339Z,101253.88
2022-12-27T09:39:44.841Z,101255.72
2022-12-27T09:43:19.464Z,101255.72
2022-12-27T09:46:36.231Z,101258.44
2022-12-27T09:49:43.081Z,101266.69
2022-12-27T09:52:55.202Z,101258.56
2022-12-27T09:55:57.978Z,101266.84
2022-12-27T09:59:13.741Z,101268.72
2022-12-27T10:02:21.934Z,101275.09
2022-12-27T10:05:31.519Z,101271.53
2022-12-27T10:08:52.237Z,101279.69
2022-12-27T10:12:15.281Z,101278.09
2022-12-27T10:15:48.961Z,101273.53
2022-12-27T10:19:17.050Z,101273.53
2022-12-27T10:22:46.008Z,101277.25
2022-12-27T10:25:53.525Z,101270.09
2022-12-27T10:29:00.780Z,101275.50
2022-12-27T10:32:02.349Z,101274.81
2022-12-27T10:35:04.558Z,101281.09
2022-12-27T10:38:10.612Z,101270.09
2022-12-27T10:41:30.457Z,101273.69
2022-12-27T10:44:31.993Z,101270.09
2022-12-27T10:47:33.692Z,101266.41
2022-12-27T10:50:35.990Z,101269.84
2022-12-27T10:53:57.249Z,101274.25
2022-12-27T10:57:17.962Z,101280.41
2022-12-27T11:00:22.617Z,101284.81
2022-12-27T11:03:26.183Z,101289.38
2022-12-27T11:06:27.745Z,101299.22
2022-12-27T11:09:31.064Z,101300.97
2022-12-27T11:12:32.997Z,101303.69
2022-12-27T11:15:37.924Z,101304.41
2022-12-27T11:18:45.171Z,101305.25
2022-12-27T11:21:46.860Z,101310.69
2022-12-27T11:24:51.431Z,101296.97
2022-12-27T11:28:14.835Z,101298.84
2022-12-27T11:31:19.211Z,101304.13
2022-12-27T11:34:34.291Z,101295.00
2022-12-27T11:37:40.097Z,101299.44
2022-12-27T11:40:42.097Z,101295.00
2022-12-27T11:44:05.610Z,101290.28
2022-12-27T11:47:35.397Z,101293.84
2022-12-27T11:51:04.793Z,101305.56
2022-12-27T11:54:20.314Z,101295.59
2022-12-27T11:57:40.592Z,101299.00
2022-12-27T12:01:19.742Z,101296.16
2022-12-27T12:04:42.910Z,101298.88
2022-12-27T12:08:10.859Z,101294.47
2022-12-27T12:11:29.678Z,101304.31
2022-12-27T12:14:56.075Z,101302.72
2022-12-27T12:18:06.413Z,101303.56
2022-12-27T12:21:43.395Z,101287.59
2022-12-27T12:25:00.685Z,101290.28
2022-12-27T12:29:00.139Z,101308.41
2022-12-27T12:32:19.580Z,101310.28
2022-12-27T12:35:26.898Z,101316.69
2022-12-27T12:38:54.752Z,101320.41
2022-12-27T12:42:20.233Z,101319.66
2022-12-27T12:45:43.453Z,101316.94
2022-12-27T12:49:03.463Z,101315.25
2022-12-27T12:52:17.663Z,101307.34
2022-12-27T12:55:43.516Z,101293.81
2022-12-27T12:59:26.554Z,101299.22
2022-12-27T13:02:34.576Z,101299.50
2022-12-27T13:05:51.200Z,101286.81
2022-12-27T13:08:55.448Z,101286.22
2022-12-27T13:12:12.253Z,101285.22
2022-12-27T13:15:21.115Z,101285.38
2022-12-27T13:18:37.612Z,101278.22
2022-12-27T13:21:46.228Z,101277.53
2022-12-27T13:25:17.045Z,101284.78
2022-12-27T13:28:27.632Z,101285.78
2022-12-27T13:31:52.374Z,101280.34
2022-12-27T13:35:20.504Z,101274.19
2022-12-27T13:38:31.710Z,101280.63
2022-12-27T13:41:47.947Z,101286.16
2022-12-27T13:44:58.294Z,101278.88
2022-12-27T13:48:02.815Z,101273.75
2022-12-27T13:51:24.523Z,101274.59
2022-12-27T13:54:55.371Z,101275.47
2022-12-27T13:58:18.532Z,101275.59
2022-12-27T14:01:28.980Z,101274.75
2022-12-27T14:05:01.831Z,101266.75
2022-12-27T14:08:45.322Z,101271.31
2022-12-27T14:12:04.274Z,101269.59
2022-12-27T14:15:08.081Z,101264.31
2022-12-27T14:18:19.209Z,101246.34
2022-12-27T14:21:37.648Z,101251.88
2022-12-27T14:24:40.174Z,101248.44
2022-12-27T14:28:18.555Z,101240.94
2022-12-27T14:31:41.853Z,101240.19
2022-12-27T14:35:06.526Z,101234.91
2022-12-27T14:38:42.061Z,101240.31
2022-12-27T14:42:04.911Z,101234.16
2022-12-27T14:45:38.441Z,101239.59
2022-12-27T14:48:58.047Z,101241.59
2022-12-27T14:52:27.427Z,101237.16
2022-12-27T14:55:40.395Z,101238.16
2022-12-27T14:58:48.005Z,101238.16
2022-12-27T15:01:55.428Z,101230.03
2022-12-27T15:05:14.973Z,101229.31
2022-12-27T15:08:27.309Z,101235.56
2022-12-27T15:11:40.190Z,101237.44
2022-12-27T15:15:12.800Z,101240.13
2022-12-27T15:18:25.894Z,101236.56
2022-12-27T15:21:49.209Z,101231.00
2022-12-27T15:24:53.784Z,101223.03
2022-12-27T15:28:23.183Z,101222.88
2022-12-27T15:31:29.809Z,101214.75
2022-12-27T15:35:00.270Z,101219.03
2022-12-27T15:38:39.307Z,101217.22
2022-12-27T15:42:18.351Z,101217.06
2022-12-27T15:45:54.387Z,101214.22
2022-12-27T15:49:17.455Z,101218.66
2022-12-27T15:52:43.396Z,101206.69
2022-12-27T15:56:07.321Z,101197.69
2022-12-27T15:59:35.009Z,101199.00
2022-12-27T16:03:05.359Z,101188.75
2022-12-27T16:06:09.176Z,101199.44
2022-12-27T16:09:25.581Z,101198.03
2022-12-27T16:12:39.616Z,101193.34
2022-12-27T16:15:45.081Z,101191.78
2022-12-27T16:19:12.885Z,101198.28
2022-12-27T16:22:32.656Z,101183.06
2022-12-27T16:25:43.691Z,101185.22
2022-12-27T16:28:55.559Z,101178.28
2022-12-27T16:32:17.886Z,101183.06
2022-12-27T16:35:19.345Z,101186.28
2022-12-27T16:38:22.291Z,101179.63
2022-12-27T16:41:35.589Z,101174.94
2022-12-27T16:44:39.764Z,101179.69
2022-12-27T16:48:21.853Z,101180.75
2022-12-27T16:52:20.513Z,101181.66
2022-12-27T16:55:43.637Z,101182.84
2022-12-27T16:58:45.409Z,101177.66
2022-12-27T17:01:46.937Z,101168.84
2022-12-27T17:04:54.545Z,101171.72
2022-12-27T17:07:56.067Z,101169.59
2022-12-27T17:11:01.755Z,101173.47
2022-12-27T17:14:18.832Z,101165.78
2022-12-27T17:17:23.052Z,101178.09
2022-12-27T17:20:25.313Z,101173.25
2022-12-27T17:23:26.973Z,101176.56
2022-12-27T17:26:51.330Z,101171.41
2022-12-27T17:30:20.260Z,101177.28
2022-12-27T17:33:50.119Z,101170.72
2022-12-27T17:37:21.206Z,101168.75
2022-12-27T17:40:47.031Z,101158.63
2022-12-27T17:44:35.590Z,101156.63
2022-12-27T17:47:58.054Z,101147.50
2022-12-27T17:51:04.654Z,101141.94
2022-12-27T17:54:42.603Z,101144.50
2022-12-27T17:57:54.897Z,101145.22
2022-12-27T18:01:01.277Z,101138.78
2022-12-27T18:04:05.812Z,101134.94
2022-12-27T18:07:12.744Z,101136.66
2022-12-27T18:10:20.393Z,101141.81
2022-12-27T18:13:25.428Z,101133.53
2022-12-27T18:16:40.625Z,101134.38
2022-12-27T18:19:42.186Z,101134.22
2022-12-27T18:22:43.748Z,101127.81
2022-12-27T18:25:45.170Z,101123.97
2022-12-27T18:28:48.118Z,101121.09
2022-12-27T18:31:52.496Z,101120.13
2022-12-27T18:35:02.116Z,101110.97
2022-12-27T18:38:07.743Z,101117.13
2022-12-27T18:41:16.871Z,101116.09
2022-12-27T18:44:27.091Z,101114.13
2022-12-27T18:47:29.355Z,101101.56
2022-12-27T18:50:33.418Z,101097.53
2022-12-27T18:53:38.204Z,101099.28
2022-12-27T18:56:41.933Z,101092.84
2022-12-27T18:59:43.420Z,101088.16
2022-12-27T19:02:45.367Z,101076.16
2022-12-27T19:06:16.560Z,101075.88
2022-12-27T19:09:20.702Z,101070.31
2022-12-27T19:12:34.652Z,101057.47
2022-12-27T19:15:44.047Z,101060.03
2022-12-27T19:18:52.707Z,101060.88
2022-12-27T19:21:54.363Z,101058.16
2022-12-27T19:25:05.253Z,101047.03
2022-12-27T19:28:09.823Z,101052.31
2022-12-27T19:31:21.616Z,101048.59
2022-12-27T19:34:27.062Z,101049.28
2022-12-27T19:37:31.598Z,101043.84
2022-12-27T19:40:33.125Z,101043.00
2022-12-27T19:43:41.597Z,101040.16
2022-12-27T19:46:43.083Z,101043.84
2022-12-27T19:49:45.327Z,101040.28
2022-12-27T19:52:48.966Z,101046.44
2022-12-27T19:55:50.720Z,101043.72
2022-12-27T19:58:52.243Z,101035.44
2022-12-27T20:01:54.069Z,101035.59
2022-12-27T20:04:55.670Z,101039.00
2022-12-27T20:07:57.189Z,101039.00
2022-12-27T20:11:00.375Z,101030.88
2022-12-27T20:14:01.825Z,101025.28
2022-12-27T20:17:03.419Z,101015.44
2022-12-27T20:20:05.509Z,101019.72
2022-12-27T20:23:06.992Z,101017.00
2022-12-27T20:26:09.475Z,101014.16
2022-12-27T20:29:12.394Z,101020.56
2022-12-27T20:32:13.893Z,101014.28
2022-12-27T20:35:15.523Z,101027.72
2022-12-27T20:38:17.015Z,101002.41
2022-12-27T20:41:20.916Z,101001.44
2022-12-27T20:44:22.453Z,100988.84
2022-12-27T20:47:24.674Z,100995.16
2022-12-27T20:50:26.269Z,100983.28
2022-12-27T20:53:27.891Z,100972.44
2022-12-27T20:56:29.877Z,100976.00
2022-12-27T20:59:31.347Z,100974.13
2022-12-27T21:02:33.505Z,100974.00
2022-12-27T21:05:36.105Z,100959.41
2022-12-27T21:08:46.713Z,100970.97
2022-12-27T21:11:53.114Z,100965.41
2022-12-27T21:14:54.637Z,100965.53
2022-12-27T21:17:56.122Z,100967.28
2022-12-27T21:21:05.539Z,100960.97
2022-12-27T21:24:08.538Z,100955.69
2022-12-27T21:27:10.305Z,100960.28
2022-12-27T21:30:13.310Z,100963.00
2022-12-27T21:33:14.813Z,100957.72
2022-12-27T21:36:22.088Z,100958.72
2022-12-27T21:39:23.582Z,100956.28
2022-12-27T21:42:25.038Z,100958.16
2022-12-27T21:45:26.523Z,100963.75
2022-12-27T21:48:28.021Z,100959.28
2022-12-27T21:51:31.444Z,100949.47
2022-12-27T21:54:32.969Z,100966.88
2022-12-27T21:57:34.429Z,100952.63
2022-12-27T22:00:35.925Z,100936.31
2022-12-27T22:03:39.222Z,100932.06
2022-12-27T22:06:46.560Z,100934.22
2022-12-27T22:09:48.749Z,100945.06
2022-12-27T22:12:51.030Z,100940.81
2022-12-27T22:15:57.349Z,100934.66
2022-12-27T22:18:59.480Z,100935.81
2022-12-27T22:22:00.963Z,100946.97
2022-12-27T22:25:02.475Z,100932.69
2022-12-27T22:28:03.990Z,100922.78
2022-12-27T22:31:07.121Z,100921.22
2022-12-27T22:34:08.635Z,100925.25
2022-12-27T22:37:10.154Z,100914.53
2022-12-27T22:40:30.675Z,100919.97
2022-12-27T22:43:34.772Z,100912.13
2022-12-27T22:47:06.797Z,100912.25
2022-12-27T22:49:57.858Z,100919.53
2022-12-27T22:52:59.301Z,100916.28
2022-12-27T22:56:00.867Z,100919.00
2022-12-27T22:59:27.778Z,100923.00
2022-12-27T23:02:29.303Z,100915.03
2022-12-27T23:05:30.818Z,100922.44
2022-12-27T23:08:32.282Z,100911.72
2022-12-27T23:11:36.143Z,100900.88
2022-12-27T23:14:37.997Z,100896.59
2022-12-27T23:17:39.454Z,100903.16
2022-12-27T23:21:20.102Z,100892.50
2022-12-27T23:24:02.901Z,100887.19
2022-12-27T23:27:04.424Z,100873.66
2022-12-27T23:30:06.457Z,100868.78
2022-12-27T23:33:08.021Z,100869.06
2022-12-27T23:36:10.882Z,100861.94
2022-12-27T23:39:12.336Z,100853.25
2022-12-27T23:42:13.779Z,100847.13
2022-12-27T23:45:15.309Z,100835.56
2022-12-27T23:48:16.862Z,100841.28
2022-12-27T23:51:19.365Z,100830.44
2022-12-27T23:54:20.871Z,100824.31
2022-12-27T23:57:23.036Z,100815.47
